METAR Data
IDs: Format: Raw Decoded Include TAF

Data at: 0012 UTC 30 May 2020

METAR for:KOOA (Oskaloosa Muni, IA, US)
Text:KOOA 292355Z AUTO 36008KT 10SM CLR 22/10 A3012 RMK AO2 T02150095 10226 20203
Temperature: 21.5°C ( 71°F)
Dewpoint: 9.5°C ( 49°F) [RH = 46%]
Pressure (altimeter):30.12 inches Hg (1020.1 mb)
Winds:from the N (360 degrees) at 9 MPH (8 knots; 4.1 m/s)
Visibility:10 or more sm (16+ km)
Ceiling:at least 12,000 feet AGL
Clouds:sky clear below 12,000 feet AGL
QC Flag:automated observation with no human augmentation